createdAt,value
2022-09-18T06:41:05.945Z,12.50
2022-09-18T06:43:34.195Z,13.00
2022-09-18T06:46:04.575Z,13.30
2022-09-18T06:48:32.875Z,13.20
2022-09-18T06:51:01.962Z,13.30
2022-09-18T06:53:30.296Z,13.70
2022-09-18T06:56:02.404Z,13.40
2022-09-18T06:58:31.916Z,13.50
2022-09-18T07:01:03.293Z,13.30
2022-09-18T07:03:31.649Z,12.80
2022-09-18T07:05:59.878Z,13.40
2022-09-18T07:08:28.176Z,13.70
2022-09-18T07:11:01.860Z,14.40
2022-09-18T07:13:32.996Z,14.10
2022-09-18T07:16:01.452Z,14.40
2022-09-18T07:18:31.301Z,14.10
2022-09-18T07:21:00.527Z,14.30
2022-09-18T07:23:29.764Z,14.50
2022-09-18T07:26:00.557Z,14.40
2022-09-18T07:28:29.091Z,14.40
2022-09-18T07:30:57.394Z,14.30
2022-09-18T07:33:25.654Z,14.10
2022-09-18T07:35:55.414Z,13.90
2022-09-18T07:38:23.642Z,13.80
2022-09-18T07:40:51.940Z,13.80
2022-09-18T07:43:22.108Z,13.70
2022-09-18T07:45:50.319Z,13.60
2022-09-18T07:48:18.523Z,13.60
2022-09-18T07:50:47.345Z,13.60
2022-09-18T07:53:18.523Z,13.80
2022-09-18T07:55:48.049Z,14.00
2022-09-18T07:58:16.465Z,13.80
2022-09-18T08:00:44.783Z,14.10
2022-09-18T08:03:15.304Z,14.40
2022-09-18T08:05:43.720Z,14.10
2022-09-18T08:08:13.973Z,14.30
2022-09-18T08:10:45.643Z,14.40
2022-09-18T08:13:14.224Z,14.00
2022-09-18T08:15:44.188Z,14.40
2022-09-18T08:18:12.598Z,14.50
2022-09-18T08:20:41.693Z,14.90
2022-09-18T08:23:11.208Z,14.20
2022-09-18T08:25:39.729Z,14.40
2022-09-18T08:28:09.376Z,14.80
2022-09-18T08:30:38.257Z,14.60
2022-09-18T08:33:09.119Z,14.60
2022-09-18T08:35:37.437Z,14.70
2022-09-18T08:38:05.775Z,14.40
2022-09-18T08:41:05.410Z,14.50
2022-09-18T08:43:53.078Z,14.20
2022-09-18T08:46:27.748Z,14.50
2022-09-18T08:49:08.807Z,14.60
2022-09-18T08:51:54.416Z,14.70
2022-09-18T08:57:19.485Z,14.20
2022-09-18T08:59:54.364Z,14.70
2022-09-18T09:02:41.529Z,14.60
2022-09-18T09:05:14.094Z,14.80
2022-09-18T09:08:21.647Z,14.90
2022-09-18T09:11:00.471Z,14.90
2022-09-18T09:14:03.484Z,14.60
2022-09-18T09:16:43.764Z,15.20
2022-09-18T09:19:31.260Z,14.60
2022-09-18T09:22:08.565Z,15.20
2022-09-18T09:24:46.993Z,14.80
2022-09-18T09:27:24.034Z,15.30
2022-09-18T09:30:01.503Z,14.90
2022-09-18T09:32:38.140Z,14.70
2022-09-18T09:35:25.383Z,14.70
2022-09-18T09:37:54.155Z,14.70
2022-09-18T09:40:34.639Z,14.80
2022-09-18T09:43:07.370Z,14.60
2022-09-18T09:45:45.938Z,14.60
2022-09-18T09:48:22.779Z,14.70
2022-09-18T09:50:59.403Z,15.00
2022-09-18T09:53:29.057Z,15.60
2022-09-18T09:56:10.839Z,15.90
2022-09-18T09:58:49.153Z,15.50
2022-09-18T10:01:22.915Z,15.50
2022-09-18T10:04:17.414Z,15.60
2022-09-18T10:06:53.123Z,15.20
2022-09-18T10:09:35.374Z,15.60
2022-09-18T10:12:28.119Z,15.90
2022-09-18T10:15:07.716Z,15.10
2022-09-18T10:17:39.936Z,15.00
2022-09-18T10:20:17.506Z,15.20
2022-09-18T10:22:48.786Z,15.70
2022-09-18T10:25:34.802Z,15.30
2022-09-18T10:28:03.206Z,15.20
2022-09-18T10:30:32.342Z,15.60
2022-09-18T10:33:00.845Z,16.20
2022-09-18T10:35:46.990Z,15.80
2022-09-18T10:38:33.384Z,15.70
2022-09-18T10:41:28.424Z,15.50
2022-09-18T10:44:17.217Z,15.50
2022-09-18T10:46:55.790Z,15.20
2022-09-18T10:49:29.127Z,15.30
2022-09-18T10:52:32.021Z,15.00
2022-09-18T10:55:20.774Z,14.50
2022-09-18T10:58:07.200Z,14.70
2022-09-18T11:00:40.798Z,14.60
2022-09-18T11:03:23.422Z,14.50
2022-09-18T11:05:56.768Z,15.10
2022-09-18T11:08:31.089Z,15.20
2022-09-18T11:11:05.459Z,14.80
2022-09-18T11:13:44.822Z,14.80
2022-09-18T11:16:23.310Z,14.90
2022-09-18T11:19:08.269Z,15.10
2022-09-18T11:21:46.414Z,15.20
2022-09-18T11:24:24.281Z,15.10
2022-09-18T11:26:54.641Z,15.10
2022-09-18T11:29:34.839Z,14.70
2022-09-18T11:32:18.004Z,14.80
2022-09-18T11:34:51.271Z,15.20
2022-09-18T11:37:32.852Z,15.20
2022-09-18T11:40:07.802Z,14.90
2022-09-18T11:42:42.922Z,14.90
2022-09-18T11:45:41.057Z,14.60
2022-09-18T11:48:25.040Z,14.70
2022-09-18T11:50:58.408Z,14.60
2022-09-18T11:53:30.886Z,14.90
2022-09-18T11:56:08.041Z,14.90
2022-09-18T11:58:44.018Z,15.40
2022-09-18T12:01:22.477Z,15.40
2022-09-18T12:03:58.880Z,14.80
2022-09-18T12:06:35.851Z,14.80
2022-09-18T12:09:11.466Z,14.50
2022-09-18T12:11:52.237Z,14.80
2022-09-18T12:14:27.722Z,14.40
2022-09-18T12:17:01.266Z,14.90
2022-09-18T12:19:35.955Z,14.60
2022-09-18T12:22:13.044Z,14.70
2022-09-18T12:24:41.367Z,14.70
2022-09-18T12:27:28.282Z,14.60
2022-09-18T12:30:10.353Z,14.70
2022-09-18T12:33:13.476Z,14.60
2022-09-18T12:36:17.932Z,14.50
2022-09-18T12:39:02.311Z,14.80
2022-09-18T12:41:47.747Z,15.10
2022-09-18T12:45:03.396Z,14.70
2022-09-18T12:48:00.600Z,14.40
2022-09-18T12:50:49.403Z,14.30
2022-09-18T12:53:41.928Z,14.40
2022-09-18T12:56:32.347Z,14.10
2022-09-18T12:59:42.762Z,14.40
2022-09-18T13:02:27.000Z,14.50
2022-09-18T13:05:04.047Z,14.40
2022-09-18T13:07:37.394Z,14.50
2022-09-18T13:10:15.494Z,14.20
2022-09-18T13:12:55.570Z,15.10
2022-09-18T13:15:29.472Z,14.50
2022-09-18T13:18:18.599Z,14.60
2022-09-18T13:20:47.774Z,14.70
2022-09-18T13:23:21.758Z,14.70
2022-09-18T13:25:53.078Z,14.60
2022-09-18T13:28:23.722Z,14.80
2022-09-18T13:31:31.948Z,14.80
2022-09-18T13:34:04.295Z,14.90
2022-09-18T13:36:35.811Z,15.00
2022-09-18T13:39:08.736Z,14.40
2022-09-18T13:41:47.259Z,14.70
2022-09-18T13:44:21.958Z,15.20
2022-09-18T13:46:54.384Z,14.80
2022-09-18T13:49:29.743Z,14.60
2022-09-18T13:52:18.856Z,14.50
2022-09-18T13:55:02.136Z,14.70
2022-09-18T13:57:32.261Z,14.40
2022-09-18T14:00:06.046Z,14.90
2022-09-18T14:02:37.756Z,14.80
2022-09-18T14:05:34.337Z,15.20
2022-09-18T14:08:31.188Z,15.20
2022-09-18T14:11:16.269Z,14.60
2022-09-18T14:13:51.756Z,14.40
2022-09-18T14:16:40.828Z,14.50
2022-09-18T14:19:32.265Z,14.30
2022-09-18T14:22:02.029Z,14.30
2022-09-18T14:25:00.088Z,14.50
2022-09-18T14:27:53.576Z,14.80
2022-09-18T14:30:25.020Z,14.10
2022-09-18T14:33:20.423Z,14.00
2022-09-18T14:35:56.757Z,14.00
2022-09-18T14:38:29.719Z,14.20
2022-09-18T14:41:08.983Z,14.40
2022-09-18T14:43:40.192Z,14.60
2022-09-18T14:46:18.972Z,14.20
2022-09-18T14:48:47.367Z,14.50
2022-09-18T14:51:23.059Z,14.30
2022-09-18T14:53:54.152Z,14.70
2022-09-18T14:56:28.737Z,14.60
2022-09-18T14:58:59.642Z,14.40
2022-09-18T15:01:32.195Z,14.10
2022-09-18T15:04:03.497Z,13.80
2022-09-18T15:06:38.576Z,13.30
2022-09-18T15:09:10.723Z,13.60
2022-09-18T15:12:01.463Z,13.50
2022-09-18T15:14:39.517Z,13.50
2022-09-18T15:17:20.621Z,13.70
2022-09-18T15:20:00.456Z,14.20
2022-09-18T15:22:31.074Z,14.10
2022-09-18T15:25:01.870Z,14.20
2022-09-18T15:27:31.548Z,14.00
2022-09-18T15:30:03.952Z,13.90
2022-09-18T15:32:38.651Z,13.20
2022-09-18T15:35:09.747Z,13.10
2022-09-18T15:37:51.312Z,14.30
2022-09-18T15:40:25.599Z,13.40
2022-09-18T15:42:58.556Z,13.60
2022-09-18T15:45:29.559Z,12.80
2022-09-18T15:47:59.348Z,12.70
2022-09-18T15:50:41.154Z,12.60
2022-09-18T15:53:31.620Z,12.50
2022-09-18T15:56:20.037Z,12.50
2022-09-18T15:58:54.980Z,12.30
2022-09-18T16:01:28.568Z,12.60
2022-09-18T16:04:17.076Z,13.80
2022-09-18T16:06:54.652Z,13.60
2022-09-18T16:09:40.236Z,13.20
2022-09-18T16:12:38.162Z,13.10
2022-09-18T16:15:23.033Z,13.40
2022-09-18T16:17:58.964Z,13.40
2022-09-18T16:20:32.359Z,12.90
2022-09-18T16:23:19.671Z,13.50
2022-09-18T16:26:03.563Z,13.80
2022-09-18T16:28:35.459Z,14.50
2022-09-18T16:31:04.193Z,14.50
2022-09-18T16:33:34.222Z,14.80
2022-09-18T16:36:05.815Z,14.40
2022-09-18T16:38:34.788Z,14.90
2022-09-18T16:41:04.660Z,15.10
2022-09-18T16:43:33.034Z,15.30
2022-09-18T16:46:01.307Z,14.60
2022-09-18T16:48:30.346Z,14.40
2022-09-18T16:50:58.755Z,14.30
2022-09-18T16:53:27.105Z,14.70
2022-09-18T16:55:58.733Z,13.20
2022-09-18T16:58:29.830Z,12.70
2022-09-18T17:00:59.019Z,13.00
2022-09-18T17:03:28.522Z,12.80
2022-09-18T17:05:56.791Z,12.80
2022-09-18T17:08:25.171Z,12.70
2022-09-18T17:10:53.423Z,12.60
2022-09-18T17:13:22.318Z,12.70
2022-09-18T17:15:52.340Z,13.10
2022-09-18T17:20:49.443Z,13.70
2022-09-18T17:23:17.888Z,13.10
2022-09-18T17:25:46.290Z,12.80
2022-09-18T17:28:17.758Z,12.40
2022-09-18T17:30:46.126Z,13.20
2022-09-18T17:33:19.810Z,13.30
2022-09-18T17:35:48.685Z,13.00
2022-09-18T17:38:17.358Z,13.50
2022-09-18T17:40:56.316Z,13.50
2022-09-18T17:43:25.593Z,14.00
2022-09-18T17:45:57.775Z,13.90
2022-09-18T17:48:29.660Z,14.20
2022-09-18T17:50:58.979Z,14.00
2022-09-18T17:53:27.671Z,14.20
2022-09-18T17:55:57.538Z,14.60
2022-09-18T17:58:26.217Z,14.80
2022-09-18T18:00:54.795Z,14.50
2022-09-18T18:03:23.788Z,13.70
2022-09-18T18:05:55.201Z,13.50
2022-09-18T18:08:23.423Z,14.20
2022-09-18T18:10:51.660Z,13.30
2022-09-18T18:13:20.080Z,13.60
2022-09-18T18:15:50.187Z,13.90
2022-09-18T18:18:19.778Z,14.00
2022-09-18T18:20:51.798Z,12.60
2022-09-18T18:23:21.427Z,13.00
2022-09-18T18:25:49.792Z,13.20
2022-09-18T18:28:18.046Z,12.90
2022-09-18T18:30:47.768Z,13.50
2022-09-18T18:33:16.009Z,13.70
2022-09-18T18:35:44.275Z,13.20
2022-09-18T18:38:12.617Z,13.30
2022-09-18T18:40:42.249Z,13.50
2022-09-18T18:43:14.193Z,13.80
2022-09-18T18:45:53.631Z,13.70
2022-09-18T18:48:22.141Z,13.50
2022-09-18T18:50:51.231Z,13.70
2022-09-18T18:53:19.467Z,13.20
2022-09-18T18:55:49.314Z,12.60
2022-09-18T18:58:17.628Z,13.00
2022-09-18T19:00:46.088Z,13.20
2022-09-18T19:03:14.982Z,13.50
2022-09-18T19:05:43.237Z,13.10
2022-09-18T19:08:11.472Z,13.20
2022-09-18T19:10:39.724Z,13.50
2022-09-18T19:13:09.687Z,13.90
2022-09-18T19:15:38.602Z,13.60
2022-09-18T19:18:06.917Z,13.60
2022-09-18T19:20:35.755Z,13.80
2022-09-18T19:23:04.764Z,13.80
2022-09-18T19:25:35.423Z,13.70
2022-09-18T19:28:03.923Z,13.60
2022-09-18T19:30:38.039Z,13.40
2022-09-18T19:33:06.744Z,12.40
2022-09-18T19:35:36.722Z,13.10
2022-09-18T19:38:06.006Z,13.00
2022-09-18T19:40:38.837Z,13.20
2022-09-18T19:43:13.478Z,12.90
2022-09-18T19:45:47.953Z,12.80
2022-09-18T19:48:23.663Z,12.40
2022-09-18T19:50:52.687Z,12.20
2022-09-18T19:53:21.360Z,12.00
2022-09-18T19:55:49.794Z,12.60
2022-09-18T19:58:19.044Z,12.10
2022-09-18T20:00:49.834Z,12.00
2022-09-18T20:03:18.167Z,12.10
2022-09-18T20:05:46.428Z,11.80
2022-09-18T20:08:14.671Z,12.50
2022-09-18T20:10:42.965Z,12.40
2022-09-18T20:13:13.164Z,12.30
2022-09-18T20:15:41.430Z,12.70
2022-09-18T20:18:11.066Z,12.70
2022-09-18T20:20:39.312Z,12.50
2022-09-18T20:23:07.784Z,12.80
2022-09-18T20:25:36.263Z,12.90
2022-09-18T20:28:04.720Z,12.70
2022-09-18T20:30:33.033Z,12.90
2022-09-18T20:33:01.996Z,13.00
2022-09-18T20:35:31.775Z,12.60
2022-09-18T20:38:03.263Z,12.60
2022-09-18T20:40:31.590Z,12.30
2022-09-18T20:43:01.996Z,12.70
2022-09-18T20:45:30.267Z,12.80
2022-09-18T20:48:02.901Z,12.50
2022-09-18T20:50:32.539Z,12.20
2022-09-18T20:53:03.482Z,12.30
2022-09-18T21:00:30.868Z,12.70
2022-09-18T21:02:59.331Z,12.40
2022-09-18T21:05:27.677Z,12.90
2022-09-18T21:07:59.902Z,12.60
2022-09-18T21:10:29.157Z,13.20
2022-09-18T21:12:58.755Z,12.70
2022-09-18T21:15:27.124Z,12.10
2022-09-18T21:17:55.379Z,12.10
2022-09-18T21:20:23.735Z,12.60
2022-09-18T21:23:09.692Z,12.20
2022-09-18T21:25:39.297Z,12.30
2022-09-18T21:28:07.557Z,12.40
2022-09-18T21:30:35.844Z,12.10
2022-09-18T21:33:04.183Z,12.00
2022-09-18T21:35:33.258Z,12.30
2022-09-18T21:38:01.496Z,12.50
2022-09-18T21:40:29.849Z,12.50
2022-09-18T21:43:00.172Z,12.60
2022-09-18T21:45:31.054Z,12.20
2022-09-18T21:47:59.318Z,12.30
2022-09-18T21:50:27.566Z,12.70
2022-09-18T21:52:55.833Z,12.70
2022-09-18T21:55:24.199Z,13.20
2022-09-18T21:57:55.709Z,12.90
2022-09-18T22:00:25.343Z,12.70
2022-09-18T22:02:54.841Z,12.50
2022-09-18T22:05:23.642Z,12.80
2022-09-18T22:07:54.967Z,12.60
2022-09-18T22:10:23.285Z,12.70
2022-09-18T22:12:51.623Z,12.30
2022-09-18T22:15:19.899Z,12.20
2022-09-18T22:17:52.362Z,12.80
2022-09-18T22:20:20.892Z,12.60
2022-09-18T22:22:49.167Z,12.20
2022-09-18T22:25:17.800Z,12.10
2022-09-18T22:27:46.810Z,12.40
2022-09-18T22:30:15.616Z,12.80
2022-09-18T22:32:43.888Z,12.40
2022-09-18T22:35:13.847Z,12.50
2022-09-18T22:37:42.116Z,12.20
2022-09-18T22:40:11.307Z,12.40
2022-09-18T22:42:39.618Z,12.30
2022-09-18T22:45:09.111Z,12.50
2022-09-18T22:47:37.383Z,12.50
2022-09-18T22:50:07.322Z,12.90
2022-09-18T22:52:38.062Z,12.70
2022-09-18T22:55:06.835Z,12.50
2022-09-18T22:57:35.071Z,12.70
2022-09-18T23:00:04.424Z,12.10
2022-09-18T23:02:33.440Z,12.80
2022-09-18T23:05:01.823Z,13.30
2022-09-18T23:07:30.052Z,13.30
2022-09-18T23:09:59.631Z,13.40
2022-09-18T23:12:27.913Z,13.30
2022-09-18T23:14:56.161Z,13.40
2022-09-18T23:17:24.541Z,13.40
2022-09-18T23:19:52.796Z,13.20
2022-09-18T23:22:22.216Z,12.70
2022-09-18T23:24:50.436Z,13.00
2022-09-18T23:27:20.088Z,13.20
2022-09-18T23:29:49.687Z,13.20
2022-09-18T23:32:18.464Z,12.60
2022-09-18T23:34:46.717Z,12.70
2022-09-18T23:37:14.977Z,12.50
2022-09-18T23:39:43.223Z,12.70
2022-09-18T23:42:11.473Z,12.70
2022-09-18T23:44:41.087Z,13.20
2022-09-18T23:47:09.743Z,13.20
2022-09-18T23:49:38.029Z,13.20
2022-09-18T23:52:06.502Z,13.30
2022-09-18T23:54:34.736Z,13.00
2022-09-18T23:57:03.020Z,13.10
2022-09-18T23:59:31.462Z,12.50
